sensor_id;sensor_type;location;lat;lon;timestamp;P1;durP1;ratioP1;P2;durP2;ratioP2
4047;SDS011;2038;51.728;6.674;2023-05-27T00:02:01;27.63;;;8.53;;
4047;SDS011;2038;51.728;6.674;2023-05-27T00:04:27;20.13;;;7.60;;
4047;SDS011;2038;51.728;6.674;2023-05-27T00:06:53;14.83;;;7.43;;
4047;SDS011;2038;51.728;6.674;2023-05-27T00:09:19;18.53;;;7.63;;
4047;SDS011;2038;51.728;6.674;2023-05-27T00:11:45;13.87;;;6.80;;
4047;SDS011;2038;51.728;6.674;2023-05-27T00:14:12;30.73;;;8.00;;
4047;SDS011;2038;51.728;6.674;2023-05-27T00:16:38;24.30;;;8.87;;
4047;SDS011;2038;51.728;6.674;2023-05-27T00:19:04;23.90;;;7.33;;
4047;SDS011;2038;51.728;6.674;2023-05-27T00:21:30;18.40;;;8.10;;
4047;SDS011;2038;51.728;6.674;2023-05-27T00:23:57;25.23;;;8.00;;
4047;SDS011;2038;51.728;6.674;2023-05-27T00:26:24;17.50;;;7.67;;
4047;SDS011;2038;51.728;6.674;2023-05-27T00:28:50;18.37;;;6.90;;
4047;SDS011;2038;51.728;6.674;2023-05-27T00:31:17;15.53;;;6.70;;
4047;SDS011;2038;51.728;6.674;2023-05-27T00:33:43;18.20;;;6.47;;
4047;SDS011;2038;51.728;6.674;2023-05-27T00:36:10;13.33;;;6.67;;
4047;SDS011;2038;51.728;6.674;2023-05-27T00:38:36;14.53;;;6.87;;
4047;SDS011;2038;51.728;6.674;2023-05-27T00:41:02;22.93;;;6.67;;
4047;SDS011;2038;51.728;6.674;2023-05-27T00:43:29;22.53;;;6.90;;
4047;SDS011;2038;51.728;6.674;2023-05-27T00:45:57;15.17;;;7.50;;
4047;SDS011;2038;51.728;6.674;2023-05-27T00:48:23;22.20;;;8.87;;
4047;SDS011;2038;51.728;6.674;2023-05-27T00:50:50;19.03;;;7.10;;
4047;SDS011;2038;51.728;6.674;2023-05-27T00:53:17;22.47;;;7.63;;
4047;SDS011;2038;51.728;6.674;2023-05-27T00:55:44;18.93;;;6.50;;
4047;SDS011;2038;51.728;6.674;2023-05-27T00:58:11;13.53;;;6.53;;
4047;SDS011;2038;51.728;6.674;2023-05-27T01:00:38;11.83;;;6.33;;
4047;SDS011;2038;51.728;6.674;2023-05-27T01:03:04;15.40;;;7.00;;
4047;SDS011;2038;51.728;6.674;2023-05-27T01:05:31;13.00;;;6.07;;
4047;SDS011;2038;51.728;6.674;2023-05-27T01:08:34;24.73;;;6.73;;
4047;SDS011;2038;51.728;6.674;2023-05-27T01:11:15;13.30;;;8.20;;
4047;SDS011;2038;51.728;6.674;2023-05-27T01:13:55;22.73;;;7.00;;
4047;SDS011;2038;51.728;6.674;2023-05-27T01:16:28;21.77;;;7.73;;
4047;SDS011;2038;51.728;6.674;2023-05-27T01:18:56;13.00;;;7.00;;
4047;SDS011;2038;51.728;6.674;2023-05-27T01:21:28;30.20;;;7.23;;
4047;SDS011;2038;51.728;6.674;2023-05-27T01:24:02;19.87;;;7.40;;
4047;SDS011;2038;51.728;6.674;2023-05-27T01:26:29;24.50;;;7.40;;
4047;SDS011;2038;51.728;6.674;2023-05-27T01:28:55;14.47;;;6.27;;
4047;SDS011;2038;51.728;6.674;2023-05-27T01:31:23;21.10;;;7.53;;
4047;SDS011;2038;51.728;6.674;2023-05-27T01:34:06;22.60;;;7.13;;
4047;SDS011;2038;51.728;6.674;2023-05-27T01:36:41;16.93;;;7.03;;
4047;SDS011;2038;51.728;6.674;2023-05-27T01:39:13;18.20;;;6.83;;
4047;SDS011;2038;51.728;6.674;2023-05-27T01:41:41;11.50;;;6.37;;
4047;SDS011;2038;51.728;6.674;2023-05-27T01:44:10;15.80;;;6.30;;
4047;SDS011;2038;51.728;6.674;2023-05-27T01:46:36;14.40;;;6.30;;
4047;SDS011;2038;51.728;6.674;2023-05-27T01:49:03;18.90;;;7.03;;
4047;SDS011;2038;51.728;6.674;2023-05-27T01:51:29;21.63;;;8.07;;
4047;SDS011;2038;51.728;6.674;2023-05-27T01:53:55;15.27;;;6.83;;
4047;SDS011;2038;51.728;6.674;2023-05-27T01:56:21;24.87;;;7.23;;
4047;SDS011;2038;51.728;6.674;2023-05-27T01:58:48;20.80;;;7.40;;
4047;SDS011;2038;51.728;6.674;2023-05-27T02:01:14;17.90;;;6.90;;
4047;SDS011;2038;51.728;6.674;2023-05-27T02:03:40;12.70;;;5.70;;
4047;SDS011;2038;51.728;6.674;2023-05-27T02:06:06;18.50;;;7.40;;
4047;SDS011;2038;51.728;6.674;2023-05-27T02:08:33;16.33;;;7.50;;
4047;SDS011;2038;51.728;6.674;2023-05-27T02:10:59;25.27;;;6.93;;
4047;SDS011;2038;51.728;6.674;2023-05-27T02:13:25;13.70;;;6.57;;
4047;SDS011;2038;51.728;6.674;2023-05-27T02:15:51;19.70;;;7.33;;
4047;SDS011;2038;51.728;6.674;2023-05-27T02:18:18;20.13;;;7.50;;
4047;SDS011;2038;51.728;6.674;2023-05-27T02:20:45;13.70;;;5.50;;
4047;SDS011;2038;51.728;6.674;2023-05-27T02:23:12;17.27;;;7.50;;
4047;SDS011;2038;51.728;6.674;2023-05-27T02:25:38;15.17;;;7.50;;
4047;SDS011;2038;51.728;6.674;2023-05-27T02:28:04;23.03;;;6.50;;
4047;SDS011;2038;51.728;6.674;2023-05-27T02:30:30;14.73;;;7.43;;
4047;SDS011;2038;51.728;6.674;2023-05-27T02:32:57;21.40;;;7.00;;
4047;SDS011;2038;51.728;6.674;2023-05-27T02:35:23;22.80;;;7.87;;
4047;SDS011;2038;51.728;6.674;2023-05-27T02:37:50;18.10;;;6.20;;
4047;SDS011;2038;51.728;6.674;2023-05-27T02:40:28;23.07;;;7.60;;
4047;SDS011;2038;51.728;6.674;2023-05-27T02:42:55;12.57;;;6.57;;
4047;SDS011;2038;51.728;6.674;2023-05-27T02:45:21;27.43;;;7.07;;
4047;SDS011;2038;51.728;6.674;2023-05-27T02:47:48;25.23;;;7.27;;
4047;SDS011;2038;51.728;6.674;2023-05-27T02:50:15;17.33;;;7.63;;
4047;SDS011;2038;51.728;6.674;2023-05-27T02:52:41;10.97;;;6.07;;
4047;SDS011;2038;51.728;6.674;2023-05-27T02:55:07;28.33;;;7.57;;
4047;SDS011;2038;51.728;6.674;2023-05-27T02:57:34;23.97;;;8.23;;
4047;SDS011;2038;51.728;6.674;2023-05-27T03:00:01;19.00;;;8.30;;
4047;SDS011;2038;51.728;6.674;2023-05-27T03:02:28;17.03;;;7.10;;
4047;SDS011;2038;51.728;6.674;2023-05-27T03:04:55;15.70;;;7.87;;
4047;SDS011;2038;51.728;6.674;2023-05-27T03:07:22;19.40;;;7.47;;
4047;SDS011;2038;51.728;6.674;2023-05-27T03:09:48;20.30;;;6.80;;
4047;SDS011;2038;51.728;6.674;2023-05-27T03:12:14;23.30;;;8.13;;
4047;SDS011;2038;51.728;6.674;2023-05-27T03:14:40;18.23;;;7.70;;
4047;SDS011;2038;51.728;6.674;2023-05-27T03:17:07;16.03;;;7.50;;
4047;SDS011;2038;51.728;6.674;2023-05-27T03:19:33;15.33;;;6.80;;
4047;SDS011;2038;51.728;6.674;2023-05-27T03:21:59;13.20;;;7.30;;
4047;SDS011;2038;51.728;6.674;2023-05-27T03:24:26;20.23;;;6.50;;
4047;SDS011;2038;51.728;6.674;2023-05-27T03:26:52;28.13;;;7.20;;
4047;SDS011;2038;51.728;6.674;2023-05-27T03:29:18;18.00;;;7.33;;
4047;SDS011;2038;51.728;6.674;2023-05-27T03:31:44;20.23;;;7.13;;
4047;SDS011;2038;51.728;6.674;2023-05-27T03:34:10;18.63;;;7.10;;
4047;SDS011;2038;51.728;6.674;2023-05-27T03:36:37;17.43;;;6.67;;
4047;SDS011;2038;51.728;6.674;2023-05-27T03:39:03;15.83;;;6.43;;
4047;SDS011;2038;51.728;6.674;2023-05-27T03:41:30;25.83;;;7.77;;
4047;SDS011;2038;51.728;6.674;2023-05-27T03:43:57;12.90;;;6.63;;
4047;SDS011;2038;51.728;6.674;2023-05-27T03:46:23;19.67;;;7.30;;
4047;SDS011;2038;51.728;6.674;2023-05-27T03:48:49;16.93;;;6.87;;
4047;SDS011;2038;51.728;6.674;2023-05-27T03:51:15;19.27;;;7.40;;
4047;SDS011;2038;51.728;6.674;2023-05-27T03:53:42;20.27;;;7.70;;
4047;SDS011;2038;51.728;6.674;2023-05-27T03:56:08;19.53;;;6.63;;
4047;SDS011;2038;51.728;6.674;2023-05-27T03:58:34;20.83;;;7.57;;
4047;SDS011;2038;51.728;6.674;2023-05-27T04:01:00;14.90;;;7.90;;
4047;SDS011;2038;51.728;6.674;2023-05-27T04:03:27;19.60;;;7.60;;
4047;SDS011;2038;51.728;6.674;2023-05-27T04:05:53;14.47;;;7.73;;
4047;SDS011;2038;51.728;6.674;2023-05-27T04:08:21;21.73;;;8.00;;
4047;SDS011;2038;51.728;6.674;2023-05-27T04:10:51;15.87;;;7.80;;
4047;SDS011;2038;51.728;6.674;2023-05-27T04:13:19;20.10;;;9.43;;
4047;SDS011;2038;51.728;6.674;2023-05-27T04:15:45;24.13;;;9.47;;
4047;SDS011;2038;51.728;6.674;2023-05-27T04:18:12;24.90;;;9.57;;
4047;SDS011;2038;51.728;6.674;2023-05-27T04:20:39;20.37;;;7.87;;
4047;SDS011;2038;51.728;6.674;2023-05-27T04:23:08;20.37;;;8.60;;
4047;SDS011;2038;51.728;6.674;2023-05-27T04:25:35;16.27;;;8.37;;
4047;SDS011;2038;51.728;6.674;2023-05-27T04:28:02;25.80;;;8.67;;
4047;SDS011;2038;51.728;6.674;2023-05-27T04:30:32;26.37;;;8.30;;
4047;SDS011;2038;51.728;6.674;2023-05-27T04:32:58;17.43;;;7.43;;
4047;SDS011;2038;51.728;6.674;2023-05-27T04:35:25;19.33;;;8.33;;
4047;SDS011;2038;51.728;6.674;2023-05-27T04:37:52;17.13;;;8.30;;
4047;SDS011;2038;51.728;6.674;2023-05-27T04:40:18;16.33;;;7.97;;
4047;SDS011;2038;51.728;6.674;2023-05-27T04:42:44;19.30;;;9.00;;
4047;SDS011;2038;51.728;6.674;2023-05-27T04:45:10;19.97;;;7.20;;
4047;SDS011;2038;51.728;6.674;2023-05-27T04:47:37;15.57;;;7.73;;
4047;SDS011;2038;51.728;6.674;2023-05-27T04:50:06;23.87;;;9.50;;
4047;SDS011;2038;51.728;6.674;2023-05-27T04:52:33;21.03;;;7.77;;
4047;SDS011;2038;51.728;6.674;2023-05-27T04:55:07;18.70;;;8.43;;
4047;SDS011;2038;51.728;6.674;2023-05-27T04:57:35;16.40;;;6.80;;
4047;SDS011;2038;51.728;6.674;2023-05-27T05:00:07;26.87;;;8.23;;
4047;SDS011;2038;51.728;6.674;2023-05-27T05:02:34;21.93;;;6.90;;
4047;SDS011;2038;51.728;6.674;2023-05-27T05:05:01;27.40;;;8.40;;
4047;SDS011;2038;51.728;6.674;2023-05-27T05:07:29;20.73;;;7.70;;
4047;SDS011;2038;51.728;6.674;2023-05-27T05:09:56;18.43;;;7.60;;
4047;SDS011;2038;51.728;6.674;2023-05-27T05:12:22;14.27;;;7.30;;
4047;SDS011;2038;51.728;6.674;2023-05-27T05:14:50;19.47;;;7.07;;
4047;SDS011;2038;51.728;6.674;2023-05-27T05:17:17;14.63;;;6.87;;
4047;SDS011;2038;51.728;6.674;2023-05-27T05:19:44;18.10;;;7.27;;
4047;SDS011;2038;51.728;6.674;2023-05-27T05:22:11;27.23;;;8.17;;
4047;SDS011;2038;51.728;6.674;2023-05-27T05:24:43;20.70;;;7.20;;
4047;SDS011;2038;51.728;6.674;2023-05-27T05:27:11;18.67;;;7.47;;
4047;SDS011;2038;51.728;6.674;2023-05-27T05:29:37;17.23;;;7.30;;
4047;SDS011;2038;51.728;6.674;2023-05-27T05:32:03;21.23;;;6.77;;
4047;SDS011;2038;51.728;6.674;2023-05-27T05:34:30;17.17;;;7.60;;
4047;SDS011;2038;51.728;6.674;2023-05-27T05:36:56;23.80;;;7.23;;
4047;SDS011;2038;51.728;6.674;2023-05-27T05:39:22;16.30;;;6.57;;
4047;SDS011;2038;51.728;6.674;2023-05-27T05:41:48;16.77;;;7.33;;
4047;SDS011;2038;51.728;6.674;2023-05-27T05:44:15;24.33;;;6.87;;
4047;SDS011;2038;51.728;6.674;2023-05-27T05:46:42;17.33;;;6.47;;
4047;SDS011;2038;51.728;6.674;2023-05-27T05:49:08;23.47;;;6.90;;
4047;SDS011;2038;51.728;6.674;2023-05-27T05:51:35;22.87;;;7.73;;
4047;SDS011;2038;51.728;6.674;2023-05-27T05:54:01;16.50;;;6.67;;
4047;SDS011;2038;51.728;6.674;2023-05-27T05:56:27;23.70;;;7.60;;
4047;SDS011;2038;51.728;6.674;2023-05-27T05:58:54;21.57;;;6.33;;
4047;SDS011;2038;51.728;6.674;2023-05-27T06:01:20;16.90;;;8.40;;
4047;SDS011;2038;51.728;6.674;2023-05-27T06:03:46;23.03;;;7.60;;
4047;SDS011;2038;51.728;6.674;2023-05-27T06:06:12;15.97;;;7.43;;
4047;SDS011;2038;51.728;6.674;2023-05-27T06:08:39;26.50;;;6.80;;
4047;SDS011;2038;51.728;6.674;2023-05-27T06:11:06;20.37;;;6.57;;
4047;SDS011;2038;51.728;6.674;2023-05-27T06:13:32;14.80;;;6.00;;
4047;SDS011;2038;51.728;6.674;2023-05-27T06:15:58;21.70;;;6.97;;
4047;SDS011;2038;51.728;6.674;2023-05-27T06:18:24;23.67;;;7.00;;
4047;SDS011;2038;51.728;6.674;2023-05-27T06:20:51;21.20;;;7.63;;
4047;SDS011;2038;51.728;6.674;2023-05-27T06:23:17;12.27;;;6.50;;
4047;SDS011;2038;51.728;6.674;2023-05-27T06:25:43;14.37;;;6.53;;
4047;SDS011;2038;51.728;6.674;2023-05-27T06:28:09;20.23;;;7.63;;
4047;SDS011;2038;51.728;6.674;2023-05-27T06:30:36;18.80;;;6.33;;
4047;SDS011;2038;51.728;6.674;2023-05-27T06:33:03;19.03;;;7.93;;
4047;SDS011;2038;51.728;6.674;2023-05-27T06:35:29;12.53;;;6.13;;
4047;SDS011;2038;51.728;6.674;2023-05-27T06:37:57;26.50;;;8.80;;
4047;SDS011;2038;51.728;6.674;2023-05-27T06:40:24;24.20;;;8.93;;
4047;SDS011;2038;51.728;6.674;2023-05-27T06:42:50;16.27;;;7.43;;
4047;SDS011;2038;51.728;6.674;2023-05-27T06:45:18;23.03;;;7.87;;
4047;SDS011;2038;51.728;6.674;2023-05-27T06:47:44;16.03;;;7.77;;
4047;SDS011;2038;51.728;6.674;2023-05-27T06:50:10;25.60;;;7.57;;
4047;SDS011;2038;51.728;6.674;2023-05-27T06:52:37;18.07;;;7.13;;
4047;SDS011;2038;51.728;6.674;2023-05-27T06:55:03;20.77;;;8.00;;
4047;SDS011;2038;51.728;6.674;2023-05-27T06:57:30;18.00;;;8.60;;
4047;SDS011;2038;51.728;6.674;2023-05-27T06:59:56;16.30;;;7.60;;
4047;SDS011;2038;51.728;6.674;2023-05-27T07:02:22;18.67;;;6.20;;
4047;SDS011;2038;51.728;6.674;2023-05-27T07:04:48;16.60;;;7.00;;
4047;SDS011;2038;51.728;6.674;2023-05-27T07:07:15;21.80;;;7.73;;
4047;SDS011;2038;51.728;6.674;2023-05-27T07:09:41;20.83;;;8.00;;
4047;SDS011;2038;51.728;6.674;2023-05-27T07:12:08;29.53;;;8.50;;
4047;SDS011;2038;51.728;6.674;2023-05-27T07:14:34;24.63;;;8.33;;
4047;SDS011;2038;51.728;6.674;2023-05-27T07:17:01;16.80;;;7.27;;
4047;SDS011;2038;51.728;6.674;2023-05-27T07:19:27;24.30;;;7.80;;
4047;SDS011;2038;51.728;6.674;2023-05-27T07:21:53;14.80;;;8.07;;
4047;SDS011;2038;51.728;6.674;2023-05-27T07:24:19;18.13;;;8.13;;
4047;SDS011;2038;51.728;6.674;2023-05-27T07:26:45;15.37;;;7.43;;
4047;SDS011;2038;51.728;6.674;2023-05-27T07:29:12;24.27;;;7.90;;
4047;SDS011;2038;51.728;6.674;2023-05-27T07:31:38;27.53;;;9.30;;
4047;SDS011;2038;51.728;6.674;2023-05-27T07:34:04;13.20;;;7.00;;
4047;SDS011;2038;51.728;6.674;2023-05-27T07:36:31;22.87;;;8.43;;
4047;SDS011;2038;51.728;6.674;2023-05-27T07:38:57;21.70;;;8.13;;
4047;SDS011;2038;51.728;6.674;2023-05-27T07:41:23;18.73;;;8.40;;
4047;SDS011;2038;51.728;6.674;2023-05-27T07:43:51;26.40;;;9.20;;
4047;SDS011;2038;51.728;6.674;2023-05-27T07:46:17;30.97;;;8.70;;
4047;SDS011;2038;51.728;6.674;2023-05-27T07:48:43;22.73;;;8.50;;
4047;SDS011;2038;51.728;6.674;2023-05-27T07:51:09;15.43;;;8.13;;
4047;SDS011;2038;51.728;6.674;2023-05-27T07:53:36;21.47;;;7.77;;
4047;SDS011;2038;51.728;6.674;2023-05-27T07:56:02;28.00;;;8.00;;
4047;SDS011;2038;51.728;6.674;2023-05-27T07:58:29;30.80;;;8.67;;
4047;SDS011;2038;51.728;6.674;2023-05-27T08:00:55;23.00;;;8.37;;
4047;SDS011;2038;51.728;6.674;2023-05-27T08:03:21;24.43;;;8.10;;
4047;SDS011;2038;51.728;6.674;2023-05-27T08:05:47;19.67;;;8.13;;
4047;SDS011;2038;51.728;6.674;2023-05-27T08:08:13;21.53;;;8.20;;
4047;SDS011;2038;51.728;6.674;2023-05-27T08:10:40;17.10;;;8.87;;
4047;SDS011;2038;51.728;6.674;2023-05-27T08:13:06;26.27;;;8.73;;
4047;SDS011;2038;51.728;6.674;2023-05-27T08:15:32;19.20;;;8.90;;
4047;SDS011;2038;51.728;6.674;2023-05-27T08:17:58;24.67;;;7.90;;
4047;SDS011;2038;51.728;6.674;2023-05-27T08:20:25;15.30;;;7.97;;
4047;SDS011;2038;51.728;6.674;2023-05-27T08:22:51;28.53;;;9.67;;
4047;SDS011;2038;51.728;6.674;2023-05-27T08:25:17;21.07;;;8.07;;
4047;SDS011;2038;51.728;6.674;2023-05-27T08:30:18;21.70;;;7.93;;
4047;SDS011;2038;51.728;6.674;2023-05-27T08:32:45;17.47;;;6.60;;
4047;SDS011;2038;51.728;6.674;2023-05-27T08:35:11;22.83;;;9.57;;
4047;SDS011;2038;51.728;6.674;2023-05-27T08:37:38;19.00;;;7.73;;
4047;SDS011;2038;51.728;6.674;2023-05-27T08:40:06;14.93;;;7.43;;
4047;SDS011;2038;51.728;6.674;2023-05-27T08:42:38;23.13;;;6.77;;
4047;SDS011;2038;51.728;6.674;2023-05-27T08:45:06;16.70;;;6.93;;
4047;SDS011;2038;51.728;6.674;2023-05-27T08:47:34;21.67;;;7.60;;
4047;SDS011;2038;51.728;6.674;2023-05-27T08:50:01;14.77;;;7.00;;
4047;SDS011;2038;51.728;6.674;2023-05-27T08:52:28;15.73;;;7.97;;
4047;SDS011;2038;51.728;6.674;2023-05-27T08:54:57;25.33;;;7.80;;
4047;SDS011;2038;51.728;6.674;2023-05-27T08:57:29;21.07;;;7.83;;
4047;SDS011;2038;51.728;6.674;2023-05-27T08:59:58;14.27;;;7.10;;
4047;SDS011;2038;51.728;6.674;2023-05-27T09:02:24;25.73;;;8.73;;
4047;SDS011;2038;51.728;6.674;2023-05-27T09:04:52;19.00;;;7.50;;
4047;SDS011;2038;51.728;6.674;2023-05-27T09:07:21;22.63;;;9.13;;
4047;SDS011;2038;51.728;6.674;2023-05-27T09:09:54;22.40;;;7.43;;
4047;SDS011;2038;51.728;6.674;2023-05-27T09:12:25;17.73;;;6.97;;
4047;SDS011;2038;51.728;6.674;2023-05-27T09:14:52;20.73;;;6.47;;
4047;SDS011;2038;51.728;6.674;2023-05-27T09:17:22;17.00;;;6.83;;
4047;SDS011;2038;51.728;6.674;2023-05-27T09:19:52;12.60;;;7.20;;
4047;SDS011;2038;51.728;6.674;2023-05-27T09:22:27;18.50;;;6.53;;
4047;SDS011;2038;51.728;6.674;2023-05-27T09:24:56;30.80;;;7.80;;
4047;SDS011;2038;51.728;6.674;2023-05-27T09:29:53;26.17;;;6.97;;
4047;SDS011;2038;51.728;6.674;2023-05-27T09:32:27;23.80;;;7.10;;
4047;SDS011;2038;51.728;6.674;2023-05-27T09:34:56;12.97;;;6.27;;
4047;SDS011;2038;51.728;6.674;2023-05-27T09:37:25;14.20;;;6.07;;
4047;SDS011;2038;51.728;6.674;2023-05-27T09:39:57;11.67;;;6.43;;
4047;SDS011;2038;51.728;6.674;2023-05-27T09:42:24;20.53;;;5.67;;
4047;SDS011;2038;51.728;6.674;2023-05-27T09:44:51;14.87;;;6.33;;
4047;SDS011;2038;51.728;6.674;2023-05-27T09:47:20;19.20;;;6.50;;
4047;SDS011;2038;51.728;6.674;2023-05-27T09:49:48;14.10;;;5.37;;
4047;SDS011;2038;51.728;6.674;2023-05-27T09:52:18;15.13;;;6.60;;
4047;SDS011;2038;51.728;6.674;2023-05-27T09:54:46;13.07;;;5.90;;
4047;SDS011;2038;51.728;6.674;2023-05-27T09:57:13;18.87;;;6.03;;
4047;SDS011;2038;51.728;6.674;2023-05-27T09:59:40;29.63;;;6.10;;
4047;SDS011;2038;51.728;6.674;2023-05-27T10:02:08;19.93;;;6.40;;
4047;SDS011;2038;51.728;6.674;2023-05-27T10:04:41;10.67;;;5.17;;
4047;SDS011;2038;51.728;6.674;2023-05-27T10:07:08;18.10;;;6.40;;
4047;SDS011;2038;51.728;6.674;2023-05-27T10:09:37;19.47;;;6.03;;
4047;SDS011;2038;51.728;6.674;2023-05-27T10:12:04;13.53;;;4.90;;
4047;SDS011;2038;51.728;6.674;2023-05-27T10:14:31;17.27;;;5.30;;
4047;SDS011;2038;51.728;6.674;2023-05-27T10:16:58;19.77;;;6.37;;
4047;SDS011;2038;51.728;6.674;2023-05-27T10:19:25;12.10;;;5.40;;
4047;SDS011;2038;51.728;6.674;2023-05-27T10:21:51;10.43;;;5.23;;
4047;SDS011;2038;51.728;6.674;2023-05-27T10:24:18;14.17;;;5.00;;
4047;SDS011;2038;51.728;6.674;2023-05-27T10:26:45;15.17;;;6.17;;
4047;SDS011;2038;51.728;6.674;2023-05-27T10:29:14;22.20;;;7.37;;
4047;SDS011;2038;51.728;6.674;2023-05-27T10:31:49;16.93;;;5.77;;
4047;SDS011;2038;51.728;6.674;2023-05-27T10:34:17;13.27;;;6.10;;
4047;SDS011;2038;51.728;6.674;2023-05-27T10:36:44;19.93;;;6.47;;
4047;SDS011;2038;51.728;6.674;2023-05-27T10:39:17;11.23;;;5.30;;
4047;SDS011;2038;51.728;6.674;2023-05-27T10:49:34;20.07;;;5.93;;
4047;SDS011;2038;51.728;6.674;2023-05-27T10:54:38;13.53;;;5.20;;
4047;SDS011;2038;51.728;6.674;2023-05-27T10:57:06;17.13;;;5.70;;
4047;SDS011;2038;51.728;6.674;2023-05-27T10:59:47;13.90;;;5.87;;
4047;SDS011;2038;51.728;6.674;2023-05-27T11:02:19;15.73;;;7.13;;
4047;SDS011;2038;51.728;6.674;2023-05-27T11:04:45;13.93;;;6.50;;
4047;SDS011;2038;51.728;6.674;2023-05-27T11:07:19;15.43;;;6.10;;
4047;SDS011;2038;51.728;6.674;2023-05-27T11:09:46;13.43;;;5.70;;
4047;SDS011;2038;51.728;6.674;2023-05-27T11:12:23;14.07;;;6.10;;
4047;SDS011;2038;51.728;6.674;2023-05-27T11:14:53;12.60;;;5.17;;
4047;SDS011;2038;51.728;6.674;2023-05-27T11:17:20;13.23;;;5.10;;
4047;SDS011;2038;51.728;6.674;2023-05-27T11:19:48;15.23;;;5.60;;
4047;SDS011;2038;51.728;6.674;2023-05-27T11:22:15;13.90;;;5.80;;
4047;SDS011;2038;51.728;6.674;2023-05-27T11:24:54;10.67;;;5.20;;
4047;SDS011;2038;51.728;6.674;2023-05-27T11:27:22;11.90;;;5.60;;
4047;SDS011;2038;51.728;6.674;2023-05-27T11:29:49;25.67;;;6.40;;
4047;SDS011;2038;51.728;6.674;2023-05-27T11:32:17;20.97;;;5.80;;
4047;SDS011;2038;51.728;6.674;2023-05-27T11:34:45;16.77;;;6.20;;
4047;SDS011;2038;51.728;6.674;2023-05-27T11:37:12;13.23;;;6.37;;
4047;SDS011;2038;51.728;6.674;2023-05-27T11:39:52;11.73;;;5.97;;
4047;SDS011;2038;51.728;6.674;2023-05-27T11:42:22;14.17;;;5.37;;
4047;SDS011;2038;51.728;6.674;2023-05-27T11:44:53;13.70;;;5.30;;
4047;SDS011;2038;51.728;6.674;2023-05-27T11:47:19;12.17;;;5.87;;
4047;SDS011;2038;51.728;6.674;2023-05-27T11:49:48;16.93;;;6.17;;
4047;SDS011;2038;51.728;6.674;2023-05-27T11:52:15;16.00;;;6.20;;
4047;SDS011;2038;51.728;6.674;2023-05-27T11:54:42;11.23;;;5.60;;
4047;SDS011;2038;51.728;6.674;2023-05-27T11:57:09;21.03;;;6.40;;
4047;SDS011;2038;51.728;6.674;2023-05-27T11:59:36;15.23;;;6.10;;
4047;SDS011;2038;51.728;6.674;2023-05-27T12:02:05;11.50;;;5.60;;
4047;SDS011;2038;51.728;6.674;2023-05-27T12:04:31;11.37;;;5.70;;
4047;SDS011;2038;51.728;6.674;2023-05-27T12:06:58;15.90;;;6.17;;
4047;SDS011;2038;51.728;6.674;2023-05-27T12:09:27;19.20;;;6.80;;
4047;SDS011;2038;51.728;6.674;2023-05-27T12:11:53;24.30;;;6.87;;
4047;SDS011;2038;51.728;6.674;2023-05-27T12:14:20;17.60;;;5.13;;
4047;SDS011;2038;51.728;6.674;2023-05-27T12:16:47;8.90;;;4.90;;
4047;SDS011;2038;51.728;6.674;2023-05-27T12:19:14;16.30;;;5.57;;
4047;SDS011;2038;51.728;6.674;2023-05-27T12:21:40;11.47;;;5.83;;
4047;SDS011;2038;51.728;6.674;2023-05-27T12:24:07;17.63;;;6.30;;
4047;SDS011;2038;51.728;6.674;2023-05-27T12:26:33;10.27;;;5.23;;
4047;SDS011;2038;51.728;6.674;2023-05-27T12:28:59;11.50;;;4.90;;
4047;SDS011;2038;51.728;6.674;2023-05-27T12:31:25;18.73;;;6.13;;
4047;SDS011;2038;51.728;6.674;2023-05-27T12:33:52;18.70;;;5.67;;
4047;SDS011;2038;51.728;6.674;2023-05-27T12:36:18;11.70;;;5.70;;
4047;SDS011;2038;51.728;6.674;2023-05-27T12:38:44;14.30;;;5.43;;
4047;SDS011;2038;51.728;6.674;2023-05-27T12:41:10;11.23;;;5.60;;
4047;SDS011;2038;51.728;6.674;2023-05-27T12:43:37;11.33;;;6.20;;
4047;SDS011;2038;51.728;6.674;2023-05-27T12:46:03;13.83;;;6.27;;
4047;SDS011;2038;51.728;6.674;2023-05-27T12:48:30;14.63;;;5.50;;
4047;SDS011;2038;51.728;6.674;2023-05-27T12:50:56;14.70;;;5.57;;
4047;SDS011;2038;51.728;6.674;2023-05-27T12:53:23;13.00;;;6.33;;
4047;SDS011;2038;51.728;6.674;2023-05-27T12:55:49;12.90;;;6.97;;
4047;SDS011;2038;51.728;6.674;2023-05-27T12:58:15;16.40;;;5.77;;
4047;SDS011;2038;51.728;6.674;2023-05-27T13:00:41;14.00;;;5.10;;
4047;SDS011;2038;51.728;6.674;2023-05-27T13:03:09;10.17;;;5.70;;
4047;SDS011;2038;51.728;6.674;2023-05-27T13:05:35;20.07;;;6.40;;
4047;SDS011;2038;51.728;6.674;2023-05-27T13:08:02;17.73;;;6.23;;
4047;SDS011;2038;51.728;6.674;2023-05-27T13:10:30;11.90;;;5.63;;
4047;SDS011;2038;51.728;6.674;2023-05-27T13:12:57;10.00;;;5.40;;
4047;SDS011;2038;51.728;6.674;2023-05-27T13:15:25;12.07;;;5.67;;
4047;SDS011;2038;51.728;6.674;2023-05-27T13:17:52;10.40;;;5.67;;
4047;SDS011;2038;51.728;6.674;2023-05-27T13:20:19;15.90;;;6.37;;
4047;SDS011;2038;51.728;6.674;2023-05-27T13:22:48;10.27;;;5.97;;
4047;SDS011;2038;51.728;6.674;2023-05-27T13:25:14;13.60;;;6.67;;
4047;SDS011;2038;51.728;6.674;2023-05-27T13:27:41;13.60;;;5.60;;
4047;SDS011;2038;51.728;6.674;2023-05-27T13:30:12;12.23;;;5.13;;
4047;SDS011;2038;51.728;6.674;2023-05-27T13:32:41;15.27;;;6.00;;
4047;SDS011;2038;51.728;6.674;2023-05-27T13:35:08;10.50;;;5.20;;
4047;SDS011;2038;51.728;6.674;2023-05-27T13:37:39;13.10;;;5.10;;
4047;SDS011;2038;51.728;6.674;2023-05-27T13:40:06;10.50;;;4.70;;
4047;SDS011;2038;51.728;6.674;2023-05-27T13:42:33;14.70;;;6.83;;
4047;SDS011;2038;51.728;6.674;2023-05-27T13:45:00;19.87;;;5.77;;
4047;SDS011;2038;51.728;6.674;2023-05-27T13:47:27;11.63;;;6.37;;
4047;SDS011;2038;51.728;6.674;2023-05-27T13:49:54;9.50;;;5.60;;
4047;SDS011;2038;51.728;6.674;2023-05-27T13:52:20;14.10;;;5.80;;
4047;SDS011;2038;51.728;6.674;2023-05-27T13:54:46;13.97;;;5.67;;
4047;SDS011;2038;51.728;6.674;2023-05-27T13:57:12;13.73;;;6.57;;
4047;SDS011;2038;51.728;6.674;2023-05-27T13:59:39;11.43;;;6.63;;
4047;SDS011;2038;51.728;6.674;2023-05-27T14:02:05;12.90;;;5.77;;
4047;SDS011;2038;51.728;6.674;2023-05-27T14:04:34;8.73;;;5.30;;
4047;SDS011;2038;51.728;6.674;2023-05-27T14:07:00;12.00;;;5.90;;
4047;SDS011;2038;51.728;6.674;2023-05-27T14:09:27;10.57;;;6.03;;
4047;SDS011;2038;51.728;6.674;2023-05-27T14:11:53;15.00;;;6.53;;
4047;SDS011;2038;51.728;6.674;2023-05-27T14:14:20;13.90;;;5.97;;
4047;SDS011;2038;51.728;6.674;2023-05-27T14:16:46;12.57;;;6.07;;
4047;SDS011;2038;51.728;6.674;2023-05-27T14:19:13;14.53;;;5.17;;
4047;SDS011;2038;51.728;6.674;2023-05-27T14:21:39;16.30;;;5.20;;
4047;SDS011;2038;51.728;6.674;2023-05-27T14:24:05;14.47;;;5.00;;
4047;SDS011;2038;51.728;6.674;2023-05-27T14:26:32;13.50;;;6.30;;
4047;SDS011;2038;51.728;6.674;2023-05-27T14:28:58;14.87;;;6.30;;
4047;SDS011;2038;51.728;6.674;2023-05-27T14:31:24;11.17;;;6.23;;
4047;SDS011;2038;51.728;6.674;2023-05-27T14:33:50;14.80;;;6.30;;
4047;SDS011;2038;51.728;6.674;2023-05-27T14:36:16;13.93;;;5.00;;
4047;SDS011;2038;51.728;6.674;2023-05-27T14:38:43;13.47;;;6.20;;
4047;SDS011;2038;51.728;6.674;2023-05-27T14:41:09;11.60;;;6.00;;
4047;SDS011;2038;51.728;6.674;2023-05-27T14:43:35;15.57;;;5.90;;
4047;SDS011;2038;51.728;6.674;2023-05-27T14:46:01;10.93;;;5.20;;
4047;SDS011;2038;51.728;6.674;2023-05-27T14:48:28;21.03;;;7.03;;
4047;SDS011;2038;51.728;6.674;2023-05-27T14:50:54;15.90;;;5.83;;
4047;SDS011;2038;51.728;6.674;2023-05-27T14:53:21;13.90;;;5.87;;
4047;SDS011;2038;51.728;6.674;2023-05-27T14:55:47;18.70;;;6.33;;
4047;SDS011;2038;51.728;6.674;2023-05-27T14:58:15;11.43;;;5.67;;
4047;SDS011;2038;51.728;6.674;2023-05-27T15:00:41;14.20;;;5.50;;
4047;SDS011;2038;51.728;6.674;2023-05-27T15:03:07;11.47;;;5.83;;
4047;SDS011;2038;51.728;6.674;2023-05-27T15:05:34;16.70;;;5.10;;
4047;SDS011;2038;51.728;6.674;2023-05-27T15:08:00;9.03;;;5.07;;
4047;SDS011;2038;51.728;6.674;2023-05-27T15:10:27;13.77;;;5.80;;
4047;SDS011;2038;51.728;6.674;2023-05-27T15:12:53;19.63;;;6.63;;
4047;SDS011;2038;51.728;6.674;2023-05-27T15:15:20;11.30;;;5.87;;
4047;SDS011;2038;51.728;6.674;2023-05-27T15:17:46;13.13;;;6.10;;
4047;SDS011;2038;51.728;6.674;2023-05-27T15:20:13;10.80;;;5.50;;